»·PEaware :: UPS591 KDEN-KONT

UPS591 :: KDEN-KONT

FLIGHT INFORMATION

Flight Status: Arrived
Operator:
United Parcel Service
More flights by this operator :: More flights under this callsign
Pilot: Nehseem A. (13724)
Aircraft: BOEING 747-400 (WINGLETS)
(B744)
More flights by this aircraft type
Origin: KDEN Denver Intl
United States
Destination: KONT Ontario Intl
United States
More flights between these airports :: More routes between these airports
Route: BAYLR3 TEHRU TOADD Q78 MARUE EAGLZ1
File this flight plan on PilotEdge
Remarks:
Altitude:
(Current/Filed)
38,000ft
Speed:
(Current/Filed)
496kts
Departed: 12-Oct-17 10:19 AM
Arrived: 12-Oct-17 12:24 PM
Distance/Time
Traveled:
711nm/2:04
Distance/Time
To Go:
Arrived

Flight Plot

Page will automatically refresh every two minutes.

Flight plan parsing failed; only flown route is shown


Map Options




Map Legend


Flown Route
Filed Route
Departure Airport
Arrival Airport
Navaid (VOR, NDB)
Fix

Horizontal Profiles

Position Reports

Time Latitude Longitude Heading Altitude Ground
Speed
12-Oct-17 10:02 39.854496 -104.675842 180 5444ft 0kts
12-Oct-17 10:03 39.854496 -104.675842 180 5444ft 0kts
12-Oct-17 10:04 39.854496 -104.675842 180 5444ft 0kts
12-Oct-17 10:05 39.854496 -104.675842 180 5444ft 0kts
12-Oct-17 10:06 39.854496 -104.675842 180 5444ft 0kts
12-Oct-17 10:07 39.854496 -104.675842 180 5444ft 0kts
12-Oct-17 10:08 39.854496 -104.675842 180 5444ft 0kts
12-Oct-17 10:09 39.854496 -104.675842 180 5444ft 0kts
12-Oct-17 10:10 39.854810 -104.675838 180 5444ft 2kts
12-Oct-17 10:11 39.855113 -104.675868 166 5444ft 0kts
12-Oct-17 10:12 39.855673 -104.675933 190 5444ft 2kts
12-Oct-17 10:13 39.856016 -104.675768 211 5444ft 0kts
12-Oct-17 10:14 39.856016 -104.675768 211 5444ft 0kts
12-Oct-17 10:15 39.856016 -104.675768 210 5444ft 0kts
12-Oct-17 10:16 39.856015 -104.675768 210 5444ft 0kts
12-Oct-17 10:17 39.855892 -104.676006 260 5444ft 2kts
12-Oct-17 10:18 39.855962 -104.678991 270 5444ft 3kts
12-Oct-17 10:19 39.855962 -104.681841 270 5444ft 15kts
12-Oct-17 10:20 39.853553 -104.684033 180 5444ft 17kts
12-Oct-17 10:21 39.847517 -104.684123 180 5444ft 25kts
12-Oct-17 10:22 39.842366 -104.684224 180 5444ft 12kts
12-Oct-17 10:23 39.841114 -104.684233 180 5444ft 8kts
12-Oct-17 10:24 39.840752 -104.701834 270 5444ft 150kts
12-Oct-17 10:25 39.840288 -104.772511 250 7772ft 199kts
12-Oct-17 10:26 39.816731 -104.840677 248 9376ft 219kts
12-Oct-17 10:27 39.794881 -104.924078 249 10546ft 271kts
12-Oct-17 10:28 39.769517 -105.018366 247 13409ft 278kts
12-Oct-17 10:29 39.737383 -105.108881 243 16757ft 277kts
12-Oct-17 10:30 39.703669 -105.202808 244 19245ft 291kts
12-Oct-17 10:31 39.668634 -105.300693 244 21659ft 310kts
12-Oct-17 10:31 39.637561 -105.386904 245 23249ft 322kts
12-Oct-17 10:33 39.591688 -105.514088 245 25693ft 346kts
12-Oct-17 10:34 39.550064 -105.629293 249 27947ft 358kts
12-Oct-17 10:35 39.515973 -105.752102 252 29973ft 367kts
12-Oct-17 10:35 39.487248 -105.857972 247 31355ft 376kts
12-Oct-17 10:37 39.448224 -105.997373 246 33077ft 384kts
12-Oct-17 10:37 39.417314 -106.106975 246 34215ft 390kts
12-Oct-17 10:38 39.380247 -106.238121 246 35904ft 384kts
12-Oct-17 10:39 39.343523 -106.368519 247 37138ft 385kts
12-Oct-17 10:41 39.300750 -106.518940 246 38232ft 382kts
12-Oct-17 10:41 39.269183 -106.628616 247 38233ft 399kts
12-Oct-17 10:43 39.211121 -106.777783 234 38192ft 399kts
12-Oct-17 10:43 39.155416 -106.873450 233 38220ft 402kts
12-Oct-17 10:44 39.091277 -106.983718 233 38191ft 401kts
12-Oct-17 10:45 39.029194 -107.090839 234 38204ft 404kts
12-Oct-17 10:46 38.962222 -107.207578 234 38226ft 406kts
12-Oct-17 10:47 38.894654 -107.324127 234 38233ft 407kts
12-Oct-17 10:48 38.827075 -107.440093 234 38214ft 403kts
12-Oct-17 10:49 38.759650 -107.555341 234 38226ft 405kts
12-Oct-17 10:50 38.692403 -107.669869 234 38162ft 400kts
12-Oct-17 10:51 38.625165 -107.783974 234 38167ft 401kts
12-Oct-17 10:52 38.558018 -107.897525 234 38136ft 399kts
12-Oct-17 10:53 38.490966 -108.010521 234 38139ft 401kts
12-Oct-17 10:54 38.423289 -108.124171 234 38136ft 401kts
12-Oct-17 10:55 38.355571 -108.237494 234 38134ft 403kts
12-Oct-17 10:56 38.287473 -108.351057 234 38131ft 402kts
12-Oct-17 10:57 38.219498 -108.464021 234 38135ft 403kts
12-Oct-17 10:58 38.151147 -108.577218 234 38131ft 404kts
12-Oct-17 10:59 38.082434 -108.690617 234 38165ft 405kts
12-Oct-17 11:00 38.013443 -108.804071 234 38207ft 408kts
12-Oct-17 11:01 37.944194 -108.917580 235 38232ft 406kts
12-Oct-17 11:02 37.875180 -109.030303 235 38247ft 404kts
12-Oct-17 11:03 37.806046 -109.142837 235 38250ft 405kts
12-Oct-17 11:04 37.736596 -109.255498 235 38250ft 405kts
12-Oct-17 11:05 37.667334 -109.367473 235 38251ft 405kts
12-Oct-17 11:06 37.597947 -109.479269 234 38254ft 405kts
12-Oct-17 11:07 37.528299 -109.591106 234 38257ft 404kts
12-Oct-17 11:08 37.458658 -109.702551 234 38235ft 408kts
12-Oct-17 11:09 37.387973 -109.815290 234 38234ft 410kts
12-Oct-17 11:10 37.316646 -109.928663 234 38205ft 417kts
12-Oct-17 11:11 37.243048 -110.045242 234 38181ft 428kts
12-Oct-17 11:12 37.169304 -110.161645 234 38158ft 426kts
12-Oct-17 11:13 37.093289 -110.281207 234 38101ft 448kts
12-Oct-17 11:14 37.016438 -110.401653 234 38112ft 444kts
12-Oct-17 11:15 36.937996 -110.524142 234 38078ft 450kts
12-Oct-17 11:16 36.860974 -110.643985 234 38088ft 438kts
12-Oct-17 11:17 36.784858 -110.761998 234 38093ft 434kts
12-Oct-17 11:18 36.709345 -110.878670 234 38105ft 429kts
12-Oct-17 11:19 36.635187 -110.992856 234 38106ft 421kts
12-Oct-17 11:20 36.561598 -111.105788 234 38113ft 417kts
12-Oct-17 11:21 36.488806 -111.217390 234 38116ft 415kts
12-Oct-17 11:22 36.416241 -111.328201 234 38134ft 412kts
12-Oct-17 11:23 36.343836 -111.437921 234 38167ft 409kts
12-Oct-17 11:24 36.283007 -111.555103 248 38199ft 406kts
12-Oct-17 11:25 36.244510 -111.686262 249 38202ft 405kts
12-Oct-17 11:26 36.205955 -111.818576 249 38226ft 408kts
12-Oct-17 11:27 36.167434 -111.950687 249 38245ft 409kts
12-Oct-17 11:28 36.128880 -112.083291 249 38247ft 409kts
12-Oct-17 11:29 36.089993 -112.215278 249 38251ft 407kts
12-Oct-17 11:30 36.051169 -112.346257 249 38221ft 404kts
12-Oct-17 11:31 36.012224 -112.477008 249 38251ft 407kts
12-Oct-17 11:32 35.973494 -112.606436 249 38149ft 397kts
12-Oct-17 11:33 35.935060 -112.734296 249 38124ft 398kts
12-Oct-17 11:34 35.898148 -112.856556 249 38121ft 399kts
12-Oct-17 11:35 35.859246 -112.984850 249 38118ft 401kts
12-Oct-17 11:36 35.820200 -113.114182 248 38093ft 405kts
12-Oct-17 11:37 35.779955 -113.245123 248 38075ft 408kts
12-Oct-17 11:38 35.739631 -113.375847 248 38047ft 411kts
12-Oct-17 11:39 35.698412 -113.507019 248 38055ft 410kts
12-Oct-17 11:40 35.656989 -113.637699 248 38055ft 409kts
12-Oct-17 11:41 35.615560 -113.767827 248 38054ft 408kts
12-Oct-17 11:42 35.574619 -113.898294 248 38058ft 408kts
12-Oct-17 11:43 35.533421 -114.027773 248 38045ft 407kts
12-Oct-17 11:45 35.491956 -114.157210 248 38057ft 409kts
12-Oct-17 11:46 35.450072 -114.287340 248 38033ft 409kts
12-Oct-17 11:47 35.408200 -114.416867 248 38002ft 409kts
12-Oct-17 11:48 35.366395 -114.546319 248 37993ft 410kts
12-Oct-17 11:49 35.324060 -114.676285 247 37994ft 409kts
12-Oct-17 11:50 35.281496 -114.805673 247 37985ft 410kts
12-Oct-17 11:51 35.241894 -114.936060 252 37996ft 408kts
12-Oct-17 11:52 35.209014 -115.068983 251 37995ft 407kts
12-Oct-17 11:53 35.175154 -115.200608 251 38004ft 405kts
12-Oct-17 11:54 35.140914 -115.333018 251 36505ft 412kts
12-Oct-17 11:55 35.107626 -115.463393 251 34243ft 388kts
12-Oct-17 11:56 35.076042 -115.585168 251 32209ft 365kts
12-Oct-17 11:57 35.045871 -115.700713 251 30234ft 351kts
12-Oct-17 11:58 35.016840 -115.812886 251 28236ft 341kts
12-Oct-17 11:59 34.987637 -115.924836 251 26231ft 353kts
12-Oct-17 12:00 34.957116 -116.040790 251 24505ft 354kts
12-Oct-17 12:01 34.923152 -116.151042 241 24149ft 337kts
12-Oct-17 12:02 34.876920 -116.252274 239 22433ft 342kts
12-Oct-17 12:03 34.827864 -116.347973 238 20729ft 332kts
12-Oct-17 12:04 34.778732 -116.443258 238 18632ft 333kts
12-Oct-17 12:05 34.729756 -116.538067 238 17217ft 318kts
12-Oct-17 12:06 34.685036 -116.624433 237 17071ft 294kts
12-Oct-17 12:07 34.634986 -116.708755 234 15610ft 313kts
12-Oct-17 12:08 34.587912 -116.793488 241 14522ft 297kts
12-Oct-17 12:09 34.549448 -116.880192 240 13046ft 285kts
12-Oct-17 12:10 34.500169 -116.954449 229 11747ft 282kts
12-Oct-17 12:11 34.449144 -117.025651 229 11026ft 279kts
12-Oct-17 12:12 34.397714 -117.097777 229 10090ft 279kts
12-Oct-17 12:13 34.339392 -117.157050 204 9872ft 272kts
12-Oct-17 12:14 34.268153 -117.184614 199 9007ft 266kts
12-Oct-17 12:15 34.198041 -117.212911 200 8998ft 266kts
12-Oct-17 12:16 34.128201 -117.241331 200 8996ft 261kts
12-Oct-17 12:17 34.059537 -117.269250 199 8653ft 267kts
12-Oct-17 12:18 33.988815 -117.298018 196 6216ft 253kts
12-Oct-17 12:19 33.926638 -117.313937 154 4696ft 222kts
12-Oct-17 12:20 33.920734 -117.250929 46 3955ft 225kts
12-Oct-17 12:21 33.969095 -117.202591 18 3946ft 228kts
12-Oct-17 12:22 34.017420 -117.242107 304 4018ft 228kts
12-Oct-17 12:23 34.051931 -117.306740 288 3934ft 229kts
12-Oct-17 12:24 34.054918 -117.381604 266 3878ft 213kts
12-Oct-17 12:25 34.054393 -117.445190 267 3115ft 166kts
12-Oct-17 12:26 34.054665 -117.497381 265 2294ft 151kts
12-Oct-17 12:27 34.054907 -117.550123 268 1499ft 158kts
12-Oct-17 12:28 34.054953 -117.600135 267 957ft 104kts
12-Oct-17 12:29 34.054954 -117.615045 270 957ft 22kts
12-Oct-17 12:30 34.056492 -117.616081 358 957ft 15kts
12-Oct-17 12:31 34.057898 -117.620031 270 957ft 19kts
12-Oct-17 12:32 34.059571 -117.621778 282 957ft 7kts
12-Oct-17 12:33 34.059573 -117.621940 267 957ft 0kts
12-Oct-17 12:34 34.059572 -117.621941 267 957ft 0kts
12-Oct-17 12:35 34.059572 -117.621942 267 957ft 0kts
12-Oct-17 12:36 34.059572 -117.621942 267 957ft 0kts

Navigation Log

Ident Type
Flight plan parsing failed, navigation log unavailable